Terminal Aerodrome Forecast
Issued by NWS

Home | Current Version | Previous Version | Text Only | Print | Product List | Glossary On
Versions: 1 2 3 4 5 6 7 8 9 10 11 12 13 14 15 16 17 18 19 20 21 22 23 24 25 26 27 28 29 30 31 32 33 34 35 36 37 38 39 40 41 42 43 44 45 46 47 48 49 50
000
FTUS43 KMKX 011142
TAFUES
TAF
KUES 011142Z 0112/0212 00000KT P6SM SCT100
     FM011500 11006KT P6SM SCT200
     FM011800 14010KT P6SM FEW250
     FM012100 16014G22KT P6SM SCT250
     FM020200 19014KT P6SM SCT250 WS020/20045KT
     FM020800 20015G26KT 5SM -SHRA BR SCT015 OVC035
      TEMPO 0208/0211 3SM -TSRA BR BKN015CB OVC030
     FM021100 22010G19KT P6SM SHRA OVC035=

USA.gov is the U.S. government's official web portal to all federal, state and local government web resources and services.